• Join FlightAware (Why Join?)
  • Login
  • US Flag 
09:06AM EDT


 

Airport Tracker/Info


-or-


 

Live Flight TrackerFlight Track Log ✈ CTL78 ✈ 19-Apr-2013 ✈ KPTK - KMBS

Flight Track Log - Related Links

Times and Time Zones

All times are in EDT time to prevent confusion due to time zone crossing. See the CTL78 flight status page for this flight to view local times or setup timezone preferences in your user account.

Time Position Orientation Groundspeed Altitude Reporting Facility
EDT Latitude Longitude Course Direction KTS MPH feet Rate Location/Type
03:55PM 42.6639 -83.4381 268° West 103 119 1,500  Level FAA TRACON SMA TRACON (SMA)
03:55PM 42.6636 -83.4503 268° West 105 121 1,900 1,140 Climbing FAA TRACON SMA TRACON (SMA)
03:55PM 42.6653 -83.4669 278° West 128 147 2,300 840 Climbing FAA TRACON SMA TRACON (SMA)
03:56PM 42.6772 -83.4742 336° Northwest 159 183 2,500 600 Climbing FAA TRACON SMA TRACON (SMA)
03:56PM 42.6917 -83.4767 353° North 168 193 2,700 600 Climbing FAA TRACON SMA TRACON (SMA)
03:56PM 42.7100 -83.4800 352° North 172 198 2,900 600 Climbing FAA TRACON SMA TRACON (SMA)
03:57PM 42.7250 -83.4825 353° North 176 203 3,100 600 Climbing FAA TRACON SMA TRACON (SMA)
03:57PM 42.7406 -83.4853 353° North 179 206 3,300 540 Climbing FAA TRACON SMA TRACON (SMA)
03:57PM 42.7597 -83.4881 354° North 179 206 3,500 420 Climbing FAA TRACON SMA TRACON (SMA)
03:58PM 42.7753 -83.4900 355° North 180 207 3,600 300 Climbing FAA TRACON SMA TRACON (SMA)
03:58PM 42.7892 -83.4981 337° Northwest 177 204 3,700 420 Climbing FAA TRACON SMA TRACON (SMA)
03:58PM 42.8047 -83.5097 331° Northwest 164 189 3,900 600 Climbing FAA TRACON SMA TRACON (SMA)
03:59PM 42.8169 -83.5197 329° Northwest 167 192 4,100  Climbing FAA TRACON SMA TRACON (SMA)
04:01PM 42.8624 -83.4361 53° Northeast  Level FlightAware Approximate
04:02PM 42.9692 -83.6344 321° Northwest 160 184 4,000  Level FAA TRACON SMA TRACON (SMA)
04:03PM 42.9903 -83.6503 331° Northwest 160 184 4,000  Level FAA TRACON SMA TRACON (SMA)
04:03PM 43.0019 -83.6597 329° Northwest 160 184 4,000 120 Level FAA TRACON SMA TRACON (SMA)
04:04PM 43.0150 -83.6711 327° Northwest 160 184 4,100 120 Climbing FAA TRACON SMA TRACON (SMA)
04:04PM 43.0292 -83.6800 335° Northwest 160 184 4,100  Level FAA TRACON SMA TRACON (SMA)
04:04PM 43.0411 -83.6897 329° Northwest 161 185 4,100  Level FAA TRACON SMA TRACON (SMA)
04:06PM 43.0891 -83.7243 332° Northwest  Level FlightAware Approximate
04:08PM 43.1133 -83.6019 321° Northwest  Level FlightAware Approximate
04:13PM 43.3665 -83.9443 334° Northwest  Level FlightAware Approximate
04:14PM 43.4077 -83.9718 334° Northwest  Level FlightAware Approximate
04:15PM 43.4490 -83.9993 334° Northwest  Level FlightAware Approximate
04:16PM 43.4902 -84.0268 334° Northwest  Level FlightAware Approximate
04:17PM 43.5167 -84.0667 305° West  Level FlightAware Approximate
04:18PM 43.5329 -84.0796 305° West  Level Estimated
04:19PM 43.5329 -84.0796 305° West  Level Estimated
04:20PM 43.5329 -84.0796 305° West  Level Estimated
04:21PM 43.5329 -84.0796 305° West  Level Estimated
04:22PM 43.5329 -84.0796 305° West  Level Estimated
04:23PM 43.5329 -84.0796 305° West  Level Estimated
04:24PM 43.5329 -84.0796 305° West  Level Estimated
04:25PM 43.5329 -84.0796 305° West  Level Estimated
04:26PM 43.5329 -84.0796 305° West  Level Estimated
04:27PM 43.5329 -84.0796 305° West  Level Estimated
04:28PM 43.5329 -84.0796 305° West  Level Estimated
04:29PM 43.5329 -84.0796 305° West  Level Estimated